Big Bear Station Historical Data
Daily Summary for February 25, 2017 Units:  English    Metric   Both
« Previous Day
Next Day »
Daily Weekly Monthly Yearly Custom
  High: Low: Average:
Temperature: 41.2 °F 19.4 °F 30.2 °F
Dew Point: 23.8 °F 4.2 °F 13.4 °F
Humidity: 91 % 24 % 52 %
Wind Speed: 6.3 mph 0.0 mph 2 mph
Wind Gust: -999.0 mph - -
Wind:- - WSW
Pressure: 30.11 in 29.96 in -
Precipitation: 0.00 in    
Historical Graphs
 
 
Tabular Data for February 25, 2017
Time Temperature Dew Point Pressure Wind Wind Speed Wind Gust Humidity Rainfall Rate (Hourly)
00:12 26.6 °F 12.6 °F 30.11 in Calm   -999.0 mph 55 % 0 in
00:28 25.9 °F 12.3 °F 30.11 in Calm   -999.0 mph 56 % 0 in
00:43 25.5 °F 11.6 °F 30.11 in Calm   -999.0 mph 55 % 0 in
00:58 25.3 °F 10.5 °F 30.11 in Calm   -999.0 mph 53 % 0 in
01:13 25.5 °F 9.4 °F 30.10 in Calm   -999.0 mph 50 % 0 in
01:28 25.7 °F 10.9 °F 30.10 in Calm   -999.0 mph 53 % 0 in
01:44 25.5 °F 10.7 °F 30.10 in Calm   -999.0 mph 53 % 0 in
01:59 25.3 °F 11.0 °F 30.09 in Calm   -999.0 mph 54 % 0 in
02:14 25.5 °F 11.2 °F 30.09 in Calm   -999.0 mph 54 % 0 in
02:29 25.7 °F 11.8 °F 30.08 in Calm   -999.0 mph 55 % 0 in
02:44 25.7 °F 11.8 °F 30.09 in Calm   -999.0 mph 55 % 0 in
03:00 25.3 °F 11.4 °F 30.08 in WSW 1.1 mph -999.0 mph 55 % 0 in
03:15 25.2 °F 12.5 °F 30.08 in South 1.7 mph -999.0 mph 58 % 0 in
03:30 25.3 °F 11.0 °F 30.07 in South 1.1 mph -999.0 mph 54 % 0 in
03:45 25.0 °F 9.8 °F 30.07 in Calm   -999.0 mph 52 % 0 in
04:00 23.9 °F 13.5 °F 30.07 in Calm   -999.0 mph 64 % 0 in
04:16 23.0 °F 14.0 °F 30.07 in Calm   -999.0 mph 68 % 0 in
04:31 21.7 °F 13.7 °F 30.07 in Calm   -999.0 mph 71 % 0 in
04:46 21.4 °F 12.1 °F 30.07 in Calm   -999.0 mph 67 % 0 in
05:01 21.6 °F 10.2 °F 30.07 in Calm   -999.0 mph 61 % 0 in
05:16 20.5 °F 11.9 °F 30.06 in Calm   -999.0 mph 69 % 0 in
05:32 19.9 °F 11.4 °F 30.07 in Calm   -999.0 mph 69 % 0 in
05:47 19.9 °F 11.7 °F 30.06 in Calm   -999.0 mph 70 % 0 in
06:02 19.4 °F 10.9 °F 30.06 in Calm   -999.0 mph 69 % 0 in
06:17 22.1 °F 8.4 °F 30.06 in Calm   -999.0 mph 55 % 0 in
06:32 22.5 °F 6.6 °F 30.06 in Calm   -999.0 mph 50 % 0 in
06:48 23.0 °F 5.3 °F 30.06 in Calm   -999.0 mph 46 % 0 in
07:03 24.6 °F 4.2 °F 30.06 in Calm   -999.0 mph 41 % 0 in
07:18 24.8 °F 7.4 °F 30.06 in Calm   -999.0 mph 47 % 0 in
07:33 26.8 °F 5.1 °F 30.06 in NW 1.7 mph -999.0 mph 39 % 0 in
07:49 29.1 °F 6.6 °F 30.06 in NW 4.2 mph -999.0 mph 38 % 0 in
08:04 29.7 °F 7.7 °F 30.07 in NNW 2.7 mph -999.0 mph 39 % 0 in
08:19 30.9 °F 7.0 °F 30.08 in Calm   -999.0 mph 36 % 0 in
08:34 31.5 °F 8.8 °F 30.08 in NNW 2.2 mph -999.0 mph 38 % 0 in
08:49 32.5 °F 7.2 °F 30.08 in WNW 2.7 mph -999.0 mph 34 % 0 in
09:05 33.8 °F 7.0 °F 30.08 in SE 6.3 mph -999.0 mph 32 % 0 in
09:20 33.8 °F 9.0 °F 30.07 in WNW 3.7 mph -999.0 mph 35 % 0 in
09:35 34.5 °F 9.6 °F 30.07 in West 4.2 mph -999.0 mph 35 % 0 in
09:50 36.5 °F 6.4 °F 30.07 in NW 4.2 mph -999.0 mph 28 % 0 in
10:05 37.6 °F 7.4 °F 30.07 in West 4.7 mph -999.0 mph 28 % 0 in
10:21 38.7 °F 7.5 °F 30.08 in NNW 6.3 mph -999.0 mph 27 % 0 in
10:36 39.4 °F 6.5 °F 30.08 in WNW 2.2 mph -999.0 mph 25 % 0 in
10:51 39.2 °F 8.0 °F 30.07 in WNW 4.7 mph -999.0 mph 27 % 0 in
11:07 39.9 °F 10.2 °F 30.07 in WNW 4.7 mph -999.0 mph 29 % 0 in
11:22 40.1 °F 8.8 °F 30.07 in SE 5.3 mph -999.0 mph 27 % 0 in
11:53 41.0 °F 10.3 °F 30.05 in West 3.2 mph -999.0 mph 28 % 0 in
12:08 40.3 °F 6.3 °F 30.05 in SSW 3.7 mph -999.0 mph 24 % 0 in
12:23 41.2 °F 7.1 °F 30.05 in NW 4.2 mph -999.0 mph 24 % 0 in
12:38 39.6 °F 8.3 °F 30.04 in NNE 5.8 mph -999.0 mph 27 % 0 in
12:54 40.3 °F 9.7 °F 30.04 in NNE 3.7 mph -999.0 mph 28 % 0 in
13:09 39.7 °F 12.9 °F 30.04 in NW 6.3 mph -999.0 mph 33 % 0 in
13:25 38.1 °F 12.8 °F 30.04 in ESE 1.7 mph -999.0 mph 35 % 0 in
13:40 37.4 °F 10.9 °F 30.03 in SW 2.2 mph -999.0 mph 33 % 0 in
13:55 37.4 °F 12.9 °F 30.03 in WNW 1.1 mph -999.0 mph 36 % 0 in
14:10 37.9 °F 12.7 °F 30.02 in SW 3.7 mph -999.0 mph 35 % 0 in
14:26 37.2 °F 12.7 °F 30.02 in SSE 5.8 mph -999.0 mph 36 % 0 in
14:41 37.4 °F 13.5 °F 30.02 in NNW 2.2 mph -999.0 mph 37 % 0 in
14:56 37.0 °F 14.9 °F 30.01 in NW 2.2 mph -999.0 mph 40 % 0 in
15:11 36.7 °F 15.2 °F 30.01 in West 4.2 mph -999.0 mph 41 % 0 in
15:27 35.6 °F 16.3 °F 30.01 in NNW 1.7 mph -999.0 mph 45 % 0 in
15:42 34.5 °F 14.3 °F 30.02 in SSE 2.7 mph -999.0 mph 43 % 0 in
15:57 34.2 °F 14.0 °F 30.02 in West 2.2 mph -999.0 mph 43 % 0 in
16:12 33.6 °F 15.5 °F 30.01 in WNW 3.2 mph -999.0 mph 47 % 0 in
16:28 33.1 °F 15.0 °F 30.01 in Calm   -999.0 mph 47 % 0 in
16:44 32.5 °F 16.4 °F 30.00 in West 2.2 mph -999.0 mph 51 % 0 in
16:59 32.2 °F 17.8 °F 29.99 in WNW 2.7 mph -999.0 mph 55 % 0 in
17:16 31.8 °F 19.1 °F 29.99 in NNW 1.7 mph -999.0 mph 59 % 0 in
17:48 31.3 °F 18.2 °F 30.00 in NW 1.7 mph -999.0 mph 58 % 0 in
18:03 31.3 °F 18.6 °F 30.00 in SSE 1.1 mph -999.0 mph 59 % 0 in
18:18 31.1 °F 18.8 °F 29.99 in SW 2.7 mph -999.0 mph 60 % 0 in
18:36 31.1 °F 21.1 °F 29.99 in NNW 2.2 mph -999.0 mph 66 % 0 in
18:52 30.9 °F 22.3 °F 29.98 in NW 4.7 mph -999.0 mph 70 % 0 in
19:07 30.7 °F 22.1 °F 29.99 in NW 2.7 mph -999.0 mph 70 % 0 in
19:23 30.7 °F 22.1 °F 29.99 in Calm   -999.0 mph 70 % 0 in
19:40 30.6 °F 21.6 °F 29.99 in SSE 4.2 mph -999.0 mph 69 % 0 in
19:56 30.4 °F 19.3 °F 29.97 in North 2.2 mph -999.0 mph 63 % 0 in
20:11 30.4 °F 18.6 °F 29.97 in WNW 3.2 mph -999.0 mph 61 % 0 in
20:26 30.4 °F 19.3 °F 29.97 in NNW 3.7 mph -999.0 mph 63 % 0 in
20:43 30.2 °F 19.1 °F 29.97 in NW 1.7 mph -999.0 mph 63 % 0 in
21:00 30.0 °F 18.6 °F 29.98 in NE 1.1 mph -999.0 mph 62 % 0 in
21:15 29.7 °F 20.4 °F 29.97 in SE 1.7 mph -999.0 mph 68 % 0 in
21:33 29.3 °F 20.4 °F 29.97 in ENE 2.7 mph -999.0 mph 69 % 0 in
21:50 28.6 °F 20.7 °F 29.97 in NE 1.1 mph -999.0 mph 72 % 0 in
22:05 27.7 °F 21.7 °F 29.97 in Calm   -999.0 mph 78 % 0 in
22:20 27.0 °F 22.2 °F 29.98 in SSE 1.7 mph -999.0 mph 82 % 0 in
22:36 26.4 °F 22.8 °F 29.98 in NNW 1.1 mph -999.0 mph 86 % 0 in
22:51 26.2 °F 23.4 °F 29.97 in Calm   -999.0 mph 89 % 0 in
23:08 26.1 °F 23.8 °F 29.97 in NNE 2.7 mph -999.0 mph 91 % 0 in
23:23 26.1 °F 23.8 °F 29.97 in NNW 4.2 mph -999.0 mph 91 % 0 in
23:40 26.1 °F 23.3 °F 29.96 in WNW 3.7 mph -999.0 mph 89 % 0 in
23:56 25.9 °F 20.3 °F 29.96 in Calm   -999.0 mph 79 % 0 in
Big Bear CA Weather
Compliments of Weather Underground - 1.5 mb